Seiersberg, Austria
Current Conditions -  °F | °C
As of 5:20 AM on Saturday 25 Oct 2014 (Local Time) from LOWG Reporting Station
Broken Clouds Broken Clouds  
Wind Chill: 45°   Ceiling: 2000
Heat Index: 45°   Visibility: 5mi
Dew Point: 43°   Wind: 3mph
Humidity: 93%   Direction: 160°SSE
Pressure: 30.21"   Gusts: NA
Location:  47.01°N, 15.4°E
Report Text: LOWG 250320Z 16003KT 8000 SCT010 BKN020 07/06 Q1023 NOSIG
Loading
Personal Weather Stations






























Interactive Weather Map
Tropical Storm Tracking
New forecast layout! Learn more

10-Day Weather Forecast

Advertisements
Track Severe Weather on mobile